sensor_id;sensor_type;location;lat;lon;timestamp;P1;durP1;ratioP1;P2;durP2;ratioP2
70532;SDS011;58088;51.186;17.130;2022-11-20T00:01:29;76.00;;;22.40;;
70532;SDS011;58088;51.186;17.130;2022-11-20T00:03:57;74.50;;;22.30;;
70532;SDS011;58088;51.186;17.130;2022-11-20T00:06:26;56.50;;;19.30;;
70532;SDS011;58088;51.186;17.130;2022-11-20T00:08:58;55.80;;;20.70;;
70532;SDS011;58088;51.186;17.130;2022-11-20T00:11:27;47.80;;;17.80;;
70532;SDS011;58088;51.186;17.130;2022-11-20T00:13:57;50.70;;;19.60;;
70532;SDS011;58088;51.186;17.130;2022-11-20T00:16:27;48.40;;;19.60;;
70532;SDS011;58088;51.186;17.130;2022-11-20T00:18:55;47.10;;;18.50;;
70532;SDS011;58088;51.186;17.130;2022-11-20T00:21:24;46.50;;;17.30;;
70532;SDS011;58088;51.186;17.130;2022-11-20T00:23:54;46.20;;;17.90;;
70532;SDS011;58088;51.186;17.130;2022-11-20T00:26:22;47.80;;;19.70;;
70532;SDS011;58088;51.186;17.130;2022-11-20T00:28:54;62.80;;;21.00;;
70532;SDS011;58088;51.186;17.130;2022-11-20T00:31:25;84.70;;;24.80;;
70532;SDS011;58088;51.186;17.130;2022-11-20T00:33:52;70.10;;;21.20;;
70532;SDS011;58088;51.186;17.130;2022-11-20T00:36:21;57.10;;;19.80;;
70532;SDS011;58088;51.186;17.130;2022-11-20T00:38:57;66.80;;;23.40;;
70532;SDS011;58088;51.186;17.130;2022-11-20T00:41:25;71.10;;;24.60;;
70532;SDS011;58088;51.186;17.130;2022-11-20T00:43:54;62.30;;;21.60;;
70532;SDS011;58088;51.186;17.130;2022-11-20T00:46:23;61.90;;;21.70;;
70532;SDS011;58088;51.186;17.130;2022-11-20T00:48:51;59.00;;;21.00;;
70532;SDS011;58088;51.186;17.130;2022-11-20T00:51:20;57.00;;;22.80;;
70532;SDS011;58088;51.186;17.130;2022-11-20T00:53:48;49.10;;;17.40;;
70532;SDS011;58088;51.186;17.130;2022-11-20T00:56:17;52.70;;;20.70;;
70532;SDS011;58088;51.186;17.130;2022-11-20T00:58:47;58.00;;;20.80;;
70532;SDS011;58088;51.186;17.130;2022-11-20T01:01:19;50.90;;;18.60;;
70532;SDS011;58088;51.186;17.130;2022-11-20T01:03:51;43.70;;;15.70;;
70532;SDS011;58088;51.186;17.130;2022-11-20T01:06:20;48.50;;;17.00;;
70532;SDS011;58088;51.186;17.130;2022-11-20T01:08:49;46.60;;;16.20;;
70532;SDS011;58088;51.186;17.130;2022-11-20T01:11:22;50.10;;;18.90;;
70532;SDS011;58088;51.186;17.130;2022-11-20T01:13:52;54.50;;;20.00;;
70532;SDS011;58088;51.186;17.130;2022-11-20T01:16:27;56.30;;;21.70;;
70532;SDS011;58088;51.186;17.130;2022-11-20T01:18:59;56.70;;;21.30;;
70532;SDS011;58088;51.186;17.130;2022-11-20T01:21:31;62.90;;;24.50;;
70532;SDS011;58088;51.186;17.130;2022-11-20T01:23:59;75.80;;;24.70;;
70532;SDS011;58088;51.186;17.130;2022-11-20T01:26:29;67.90;;;24.30;;
70532;SDS011;58088;51.186;17.130;2022-11-20T01:28:57;61.80;;;23.20;;
70532;SDS011;58088;51.186;17.130;2022-11-20T01:31:29;62.90;;;22.60;;
70532;SDS011;58088;51.186;17.130;2022-11-20T01:34:04;61.20;;;23.00;;
70532;SDS011;58088;51.186;17.130;2022-11-20T01:36:35;65.30;;;21.10;;
70532;SDS011;58088;51.186;17.130;2022-11-20T01:39:05;48.60;;;16.70;;
70532;SDS011;58088;51.186;17.130;2022-11-20T01:41:36;57.30;;;19.70;;
70532;SDS011;58088;51.186;17.130;2022-11-20T01:44:49;57.10;;;20.10;;
70532;SDS011;58088;51.186;17.130;2022-11-20T01:47:16;65.80;;;22.60;;
70532;SDS011;58088;51.186;17.130;2022-11-20T01:49:52;58.60;;;21.90;;
70532;SDS011;58088;51.186;17.130;2022-11-20T01:52:55;52.70;;;19.90;;
70532;SDS011;58088;51.186;17.130;2022-11-20T01:55:34;50.20;;;18.40;;
70532;SDS011;58088;51.186;17.130;2022-11-20T01:58:03;31.50;;;9.90;;
70532;SDS011;58088;51.186;17.130;2022-11-20T02:00:30;36.00;;;12.40;;
70532;SDS011;58088;51.186;17.130;2022-11-20T02:03:17;45.00;;;16.10;;
70532;SDS011;58088;51.186;17.130;2022-11-20T02:05:57;28.90;;;9.70;;
70532;SDS011;58088;51.186;17.130;2022-11-20T02:08:27;43.80;;;14.80;;
70532;SDS011;58088;51.186;17.130;2022-11-20T02:10:54;44.70;;;15.00;;
70532;SDS011;58088;51.186;17.130;2022-11-20T02:13:20;41.90;;;15.30;;
70532;SDS011;58088;51.186;17.130;2022-11-20T02:16:15;44.90;;;16.10;;
70532;SDS011;58088;51.186;17.130;2022-11-20T02:18:45;40.50;;;14.70;;
70532;SDS011;58088;51.186;17.130;2022-11-20T02:21:27;52.50;;;19.00;;
70532;SDS011;58088;51.186;17.130;2022-11-20T02:24:11;48.00;;;18.50;;
70532;SDS011;58088;51.186;17.130;2022-11-20T02:29:36;50.50;;;18.80;;
70532;SDS011;58088;51.186;17.130;2022-11-20T02:32:06;45.70;;;18.50;;
70532;SDS011;58088;51.186;17.130;2022-11-20T02:34:32;47.00;;;18.50;;
70532;SDS011;58088;51.186;17.130;2022-11-20T02:36:58;46.40;;;17.90;;
70532;SDS011;58088;51.186;17.130;2022-11-20T02:39:26;46.60;;;17.10;;
70532;SDS011;58088;51.186;17.130;2022-11-20T02:41:54;45.90;;;16.30;;
70532;SDS011;58088;51.186;17.130;2022-11-20T02:44:21;45.80;;;16.70;;
70532;SDS011;58088;51.186;17.130;2022-11-20T02:46:47;45.10;;;17.00;;
70532;SDS011;58088;51.186;17.130;2022-11-20T02:49:13;42.30;;;15.50;;
70532;SDS011;58088;51.186;17.130;2022-11-20T02:51:39;43.60;;;14.60;;
70532;SDS011;58088;51.186;17.130;2022-11-20T02:54:05;41.40;;;17.10;;
70532;SDS011;58088;51.186;17.130;2022-11-20T02:56:31;43.80;;;14.70;;
70532;SDS011;58088;51.186;17.130;2022-11-20T02:58:58;42.70;;;15.10;;
70532;SDS011;58088;51.186;17.130;2022-11-20T03:01:24;49.20;;;18.50;;
70532;SDS011;58088;51.186;17.130;2022-11-20T03:03:50;45.90;;;16.30;;
70532;SDS011;58088;51.186;17.130;2022-11-20T03:06:18;45.50;;;17.80;;
70532;SDS011;58088;51.186;17.130;2022-11-20T03:08:44;54.50;;;19.20;;
70532;SDS011;58088;51.186;17.130;2022-11-20T03:11:10;48.00;;;18.50;;
70532;SDS011;58088;51.186;17.130;2022-11-20T03:13:37;55.90;;;18.50;;
70532;SDS011;58088;51.186;17.130;2022-11-20T03:16:12;54.10;;;19.50;;
70532;SDS011;58088;51.186;17.130;2022-11-20T03:18:42;49.90;;;18.90;;
70532;SDS011;58088;51.186;17.130;2022-11-20T03:21:09;52.40;;;19.80;;
70532;SDS011;58088;51.186;17.130;2022-11-20T03:23:36;52.10;;;19.40;;
70532;SDS011;58088;51.186;17.130;2022-11-20T03:26:18;47.70;;;17.70;;
70532;SDS011;58088;51.186;17.130;2022-11-20T03:28:49;50.80;;;19.30;;
70532;SDS011;58088;51.186;17.130;2022-11-20T03:31:38;53.70;;;19.70;;
70532;SDS011;58088;51.186;17.130;2022-11-20T03:34:09;46.30;;;18.00;;
70532;SDS011;58088;51.186;17.130;2022-11-20T03:36:41;49.00;;;17.90;;
70532;SDS011;58088;51.186;17.130;2022-11-20T03:39:08;49.50;;;17.40;;
70532;SDS011;58088;51.186;17.130;2022-11-20T03:41:40;56.90;;;19.50;;
70532;SDS011;58088;51.186;17.130;2022-11-20T03:44:09;52.40;;;19.20;;
70532;SDS011;58088;51.186;17.130;2022-11-20T03:46:37;60.80;;;21.80;;
70532;SDS011;58088;51.186;17.130;2022-11-20T03:49:04;56.10;;;21.70;;
70532;SDS011;58088;51.186;17.130;2022-11-20T03:51:33;58.20;;;21.10;;
70532;SDS011;58088;51.186;17.130;2022-11-20T03:54:04;53.80;;;21.40;;
70532;SDS011;58088;51.186;17.130;2022-11-20T03:56:35;61.40;;;22.80;;
70532;SDS011;58088;51.186;17.130;2022-11-20T03:59:03;63.80;;;23.20;;
70532;SDS011;58088;51.186;17.130;2022-11-20T04:01:35;54.60;;;20.30;;
70532;SDS011;58088;51.186;17.130;2022-11-20T04:04:05;49.50;;;18.60;;
70532;SDS011;58088;51.186;17.130;2022-11-20T04:06:37;50.90;;;18.60;;
70532;SDS011;58088;51.186;17.130;2022-11-20T04:09:05;48.80;;;18.20;;
70532;SDS011;58088;51.186;17.130;2022-11-20T04:11:34;38.10;;;14.50;;
70532;SDS011;58088;51.186;17.130;2022-11-20T04:14:04;44.70;;;15.80;;
70532;SDS011;58088;51.186;17.130;2022-11-20T04:16:34;45.40;;;14.40;;
70532;SDS011;58088;51.186;17.130;2022-11-20T04:19:06;52.00;;;19.50;;
70532;SDS011;58088;51.186;17.130;2022-11-20T04:21:35;51.90;;;19.70;;
70532;SDS011;58088;51.186;17.130;2022-11-20T04:24:02;50.90;;;18.40;;
70532;SDS011;58088;51.186;17.130;2022-11-20T04:26:30;46.80;;;17.30;;
70532;SDS011;58088;51.186;17.130;2022-11-20T04:28:56;53.50;;;18.40;;
70532;SDS011;58088;51.186;17.130;2022-11-20T04:31:26;45.20;;;16.40;;
70532;SDS011;58088;51.186;17.130;2022-11-20T04:33:54;43.00;;;15.30;;
70532;SDS011;58088;51.186;17.130;2022-11-20T04:36:25;45.20;;;15.60;;
70532;SDS011;58088;51.186;17.130;2022-11-20T04:38:53;45.40;;;15.30;;
70532;SDS011;58088;51.186;17.130;2022-11-20T04:41:22;50.00;;;18.20;;
70532;SDS011;58088;51.186;17.130;2022-11-20T04:43:56;51.70;;;19.30;;
70532;SDS011;58088;51.186;17.130;2022-11-20T04:46:34;55.30;;;20.00;;
70532;SDS011;58088;51.186;17.130;2022-11-20T04:49:06;50.10;;;19.80;;
70532;SDS011;58088;51.186;17.130;2022-11-20T04:51:33;51.10;;;18.30;;
70532;SDS011;58088;51.186;17.130;2022-11-20T04:54:00;49.00;;;19.00;;
70532;SDS011;58088;51.186;17.130;2022-11-20T04:56:27;50.90;;;18.10;;
70532;SDS011;58088;51.186;17.130;2022-11-20T04:58:53;46.10;;;18.20;;
70532;SDS011;58088;51.186;17.130;2022-11-20T05:01:21;44.10;;;18.30;;
70532;SDS011;58088;51.186;17.130;2022-11-20T05:03:49;49.50;;;18.20;;
70532;SDS011;58088;51.186;17.130;2022-11-20T05:06:17;46.40;;;17.70;;
70532;SDS011;58088;51.186;17.130;2022-11-20T05:08:45;46.10;;;18.40;;
70532;SDS011;58088;51.186;17.130;2022-11-20T05:11:18;45.80;;;18.50;;
70532;SDS011;58088;51.186;17.130;2022-11-20T05:13:46;43.20;;;17.40;;
70532;SDS011;58088;51.186;17.130;2022-11-20T05:16:18;40.60;;;14.20;;
70532;SDS011;58088;51.186;17.130;2022-11-20T05:18:46;43.30;;;16.70;;
70532;SDS011;58088;51.186;17.130;2022-11-20T05:21:13;47.20;;;16.00;;
70532;SDS011;58088;51.186;17.130;2022-11-20T05:23:41;47.60;;;17.50;;
70532;SDS011;58088;51.186;17.130;2022-11-20T05:26:13;46.00;;;16.70;;
70532;SDS011;58088;51.186;17.130;2022-11-20T05:28:41;43.20;;;16.20;;
70532;SDS011;58088;51.186;17.130;2022-11-20T05:31:10;48.40;;;17.00;;
70532;SDS011;58088;51.186;17.130;2022-11-20T05:33:42;60.40;;;19.50;;
70532;SDS011;58088;51.186;17.130;2022-11-20T05:36:11;52.60;;;19.80;;
70532;SDS011;58088;51.186;17.130;2022-11-20T05:38:39;52.90;;;18.60;;
70532;SDS011;58088;51.186;17.130;2022-11-20T05:41:07;55.00;;;18.20;;
70532;SDS011;58088;51.186;17.130;2022-11-20T05:43:36;47.30;;;17.30;;
70532;SDS011;58088;51.186;17.130;2022-11-20T05:46:05;45.70;;;16.80;;
70532;SDS011;58088;51.186;17.130;2022-11-20T05:48:34;53.30;;;18.60;;
70532;SDS011;58088;51.186;17.130;2022-11-20T05:51:02;57.10;;;19.90;;
70532;SDS011;58088;51.186;17.130;2022-11-20T05:53:32;53.50;;;18.90;;
70532;SDS011;58088;51.186;17.130;2022-11-20T05:56:00;47.10;;;16.90;;
70532;SDS011;58088;51.186;17.130;2022-11-20T05:58:29;46.10;;;17.10;;
70532;SDS011;58088;51.186;17.130;2022-11-20T06:01:04;52.60;;;19.30;;
70532;SDS011;58088;51.186;17.130;2022-11-20T06:03:40;49.90;;;18.90;;
70532;SDS011;58088;51.186;17.130;2022-11-20T06:06:09;62.30;;;21.20;;
70532;SDS011;58088;51.186;17.130;2022-11-20T06:08:35;51.00;;;19.60;;
70532;SDS011;58088;51.186;17.130;2022-11-20T06:11:06;54.40;;;19.90;;
70532;SDS011;58088;51.186;17.130;2022-11-20T06:13:34;64.40;;;22.80;;
70532;SDS011;58088;51.186;17.130;2022-11-20T06:16:00;61.10;;;22.70;;
70532;SDS011;58088;51.186;17.130;2022-11-20T06:18:27;63.20;;;24.50;;
70532;SDS011;58088;51.186;17.130;2022-11-20T06:21:21;57.80;;;22.10;;
70532;SDS011;58088;51.186;17.130;2022-11-20T06:23:49;64.30;;;22.30;;
70532;SDS011;58088;51.186;17.130;2022-11-20T06:26:20;71.10;;;24.20;;
70532;SDS011;58088;51.186;17.130;2022-11-20T06:28:49;57.80;;;22.10;;
70532;SDS011;58088;51.186;17.130;2022-11-20T06:31:19;52.10;;;18.10;;
70532;SDS011;58088;51.186;17.130;2022-11-20T06:33:47;50.10;;;18.70;;
70532;SDS011;58088;51.186;17.130;2022-11-20T06:36:16;56.20;;;20.40;;
70532;SDS011;58088;51.186;17.130;2022-11-20T06:38:45;60.40;;;22.50;;
70532;SDS011;58088;51.186;17.130;2022-11-20T06:41:23;61.00;;;22.80;;
70532;SDS011;58088;51.186;17.130;2022-11-20T06:43:51;70.20;;;25.50;;
70532;SDS011;58088;51.186;17.130;2022-11-20T06:46:19;110.40;;;36.90;;
70532;SDS011;58088;51.186;17.130;2022-11-20T06:48:46;104.10;;;31.40;;
70532;SDS011;58088;51.186;17.130;2022-11-20T06:51:14;77.10;;;28.10;;
70532;SDS011;58088;51.186;17.130;2022-11-20T06:53:41;66.50;;;26.10;;
70532;SDS011;58088;51.186;17.130;2022-11-20T06:56:07;71.80;;;28.20;;
70532;SDS011;58088;51.186;17.130;2022-11-20T06:58:35;65.30;;;22.60;;
70532;SDS011;58088;51.186;17.130;2022-11-20T07:01:10;53.80;;;19.10;;
70532;SDS011;58088;51.186;17.130;2022-11-20T07:03:38;56.30;;;22.40;;
70532;SDS011;58088;51.186;17.130;2022-11-20T07:06:06;52.10;;;20.30;;
70532;SDS011;58088;51.186;17.130;2022-11-20T07:08:34;83.40;;;28.50;;
70532;SDS011;58088;51.186;17.130;2022-11-20T07:11:02;58.60;;;19.80;;
70532;SDS011;58088;51.186;17.130;2022-11-20T07:13:31;60.10;;;23.10;;
70532;SDS011;58088;51.186;17.130;2022-11-20T07:16:03;49.50;;;21.00;;
70532;SDS011;58088;51.186;17.130;2022-11-20T07:18:32;52.20;;;19.70;;
70532;SDS011;58088;51.186;17.130;2022-11-20T07:21:07;61.00;;;24.60;;
70532;SDS011;58088;51.186;17.130;2022-11-20T07:23:44;52.30;;;19.60;;
70532;SDS011;58088;51.186;17.130;2022-11-20T07:26:16;57.70;;;20.90;;
70532;SDS011;58088;51.186;17.130;2022-11-20T07:28:44;55.50;;;20.30;;
70532;SDS011;58088;51.186;17.130;2022-11-20T07:31:11;57.90;;;22.50;;
70532;SDS011;58088;51.186;17.130;2022-11-20T07:33:38;60.70;;;21.70;;
70532;SDS011;58088;51.186;17.130;2022-11-20T07:36:04;48.50;;;18.90;;
70532;SDS011;58088;51.186;17.130;2022-11-20T07:38:31;43.00;;;16.20;;
70532;SDS011;58088;51.186;17.130;2022-11-20T07:40:57;34.80;;;12.40;;
70532;SDS011;58088;51.186;17.130;2022-11-20T07:43:24;37.60;;;13.50;;
70532;SDS011;58088;51.186;17.130;2022-11-20T07:45:51;36.80;;;11.80;;
70532;SDS011;58088;51.186;17.130;2022-11-20T07:48:17;36.00;;;11.90;;
70532;SDS011;58088;51.186;17.130;2022-11-20T07:50:43;40.40;;;13.50;;
70532;SDS011;58088;51.186;17.130;2022-11-20T07:53:09;23.80;;;7.40;;
70532;SDS011;58088;51.186;17.130;2022-11-20T07:55:35;41.00;;;14.60;;
70532;SDS011;58088;51.186;17.130;2022-11-20T07:58:01;33.90;;;13.10;;
70532;SDS011;58088;51.186;17.130;2022-11-20T08:00:28;37.50;;;14.40;;
70532;SDS011;58088;51.186;17.130;2022-11-20T08:02:54;35.10;;;13.70;;
70532;SDS011;58088;51.186;17.130;2022-11-20T08:05:20;51.80;;;19.00;;
70532;SDS011;58088;51.186;17.130;2022-11-20T08:07:47;46.00;;;17.70;;
70532;SDS011;58088;51.186;17.130;2022-11-20T08:10:14;37.10;;;14.20;;
70532;SDS011;58088;51.186;17.130;2022-11-20T08:12:48;36.20;;;14.20;;
70532;SDS011;58088;51.186;17.130;2022-11-20T08:15:35;38.50;;;15.70;;
70532;SDS011;58088;51.186;17.130;2022-11-20T08:18:12;40.90;;;17.30;;
70532;SDS011;58088;51.186;17.130;2022-11-20T08:20:38;29.30;;;11.60;;
70532;SDS011;58088;51.186;17.130;2022-11-20T08:23:05;23.90;;;8.80;;
70532;SDS011;58088;51.186;17.130;2022-11-20T08:25:34;38.20;;;13.70;;
70532;SDS011;58088;51.186;17.130;2022-11-20T08:28:04;14.60;;;4.70;;
70532;SDS011;58088;51.186;17.130;2022-11-20T08:30:32;36.60;;;14.80;;
70532;SDS011;58088;51.186;17.130;2022-11-20T08:33:07;41.10;;;15.20;;
70532;SDS011;58088;51.186;17.130;2022-11-20T08:35:35;31.10;;;12.60;;
70532;SDS011;58088;51.186;17.130;2022-11-20T08:38:04;36.40;;;16.30;;
70532;SDS011;58088;51.186;17.130;2022-11-20T08:40:31;29.00;;;12.00;;
70532;SDS011;58088;51.186;17.130;2022-11-20T08:42:58;37.30;;;14.00;;
70532;SDS011;58088;51.186;17.130;2022-11-20T08:45:24;34.50;;;15.60;;
70532;SDS011;58088;51.186;17.130;2022-11-20T08:47:51;37.50;;;14.60;;
70532;SDS011;58088;51.186;17.130;2022-11-20T08:50:17;43.30;;;17.90;;
70532;SDS011;58088;51.186;17.130;2022-11-20T08:52:44;32.30;;;13.50;;
70532;SDS011;58088;51.186;17.130;2022-11-20T08:55:10;33.00;;;14.40;;
70532;SDS011;58088;51.186;17.130;2022-11-20T08:57:38;29.60;;;12.50;;
70532;SDS011;58088;51.186;17.130;2022-11-20T09:00:06;27.80;;;10.30;;
70532;SDS011;58088;51.186;17.130;2022-11-20T09:02:36;13.20;;;4.40;;
70532;SDS011;58088;51.186;17.130;2022-11-20T09:05:03;29.00;;;10.80;;
70532;SDS011;58088;51.186;17.130;2022-11-20T09:07:32;38.50;;;15.80;;
70532;SDS011;58088;51.186;17.130;2022-11-20T09:09:59;31.80;;;13.70;;
70532;SDS011;58088;51.186;17.130;2022-11-20T09:12:25;30.40;;;12.50;;
70532;SDS011;58088;51.186;17.130;2022-11-20T09:14:52;32.80;;;14.80;;
70532;SDS011;58088;51.186;17.130;2022-11-20T09:17:19;19.40;;;8.80;;
70532;SDS011;58088;51.186;17.130;2022-11-20T09:19:46;18.40;;;7.80;;
70532;SDS011;58088;51.186;17.130;2022-11-20T09:22:12;33.40;;;13.10;;
70532;SDS011;58088;51.186;17.130;2022-11-20T09:24:38;24.60;;;9.50;;
70532;SDS011;58088;51.186;17.130;2022-11-20T09:27:05;21.70;;;7.60;;
70532;SDS011;58088;51.186;17.130;2022-11-20T09:29:31;35.20;;;14.90;;
70532;SDS011;58088;51.186;17.130;2022-11-20T09:31:57;29.80;;;13.10;;
70532;SDS011;58088;51.186;17.130;2022-11-20T09:34:23;38.10;;;17.00;;
70532;SDS011;58088;51.186;17.130;2022-11-20T09:36:49;34.60;;;12.90;;
70532;SDS011;58088;51.186;17.130;2022-11-20T09:39:15;30.70;;;11.30;;
70532;SDS011;58088;51.186;17.130;2022-11-20T09:42:08;26.10;;;10.90;;
70532;SDS011;58088;51.186;17.130;2022-11-20T09:50:49;31.40;;;12.70;;
70532;SDS011;58088;51.186;17.130;2022-11-20T09:56:03;32.70;;;14.50;;
70532;SDS011;58088;51.186;17.130;2022-11-20T09:58:50;19.50;;;7.50;;
70532;SDS011;58088;51.186;17.130;2022-11-20T10:01:23;27.60;;;10.80;;
70532;SDS011;58088;51.186;17.130;2022-11-20T10:04:00;25.40;;;10.90;;
70532;SDS011;58088;51.186;17.130;2022-11-20T10:06:47;31.20;;;11.10;;
70532;SDS011;58088;51.186;17.130;2022-11-20T10:09:28;33.10;;;13.70;;
70532;SDS011;58088;51.186;17.130;2022-11-20T10:12:25;30.80;;;13.10;;
70532;SDS011;58088;51.186;17.130;2022-11-20T10:18:39;24.10;;;9.90;;
70532;SDS011;58088;51.186;17.130;2022-11-20T10:21:35;21.90;;;8.30;;
70532;SDS011;58088;51.186;17.130;2022-11-20T10:24:43;25.90;;;11.10;;
70532;SDS011;58088;51.186;17.130;2022-11-20T10:30:31;18.70;;;8.30;;
70532;SDS011;58088;51.186;17.130;2022-11-20T10:33:06;13.90;;;5.40;;
70532;SDS011;58088;51.186;17.130;2022-11-20T10:35:52;15.90;;;6.30;;
70532;SDS011;58088;51.186;17.130;2022-11-20T10:38:52;17.40;;;5.80;;
70532;SDS011;58088;51.186;17.130;2022-11-20T10:41:31;16.40;;;6.30;;
70532;SDS011;58088;51.186;17.130;2022-11-20T10:44:05;21.80;;;9.30;;
70532;SDS011;58088;51.186;17.130;2022-11-20T10:46:45;22.10;;;9.10;;
70532;SDS011;58088;51.186;17.130;2022-11-20T10:49:17;18.90;;;7.60;;
70532;SDS011;58088;51.186;17.130;2022-11-20T10:54:56;16.30;;;7.30;;
70532;SDS011;58088;51.186;17.130;2022-11-20T10:58:08;23.90;;;8.90;;
70532;SDS011;58088;51.186;17.130;2022-11-20T11:00:36;21.70;;;8.70;;
70532;SDS011;58088;51.186;17.130;2022-11-20T11:03:02;17.30;;;7.30;;
70532;SDS011;58088;51.186;17.130;2022-11-20T11:05:46;16.40;;;6.70;;
70532;SDS011;58088;51.186;17.130;2022-11-20T11:08:18;11.80;;;4.30;;
70532;SDS011;58088;51.186;17.130;2022-11-20T11:10:57;23.60;;;9.70;;
70532;SDS011;58088;51.186;17.130;2022-11-20T11:13:29;22.40;;;8.70;;
70532;SDS011;58088;51.186;17.130;2022-11-20T11:15:57;17.50;;;8.00;;
70532;SDS011;58088;51.186;17.130;2022-11-20T11:18:31;15.90;;;6.60;;
70532;SDS011;58088;51.186;17.130;2022-11-20T11:21:04;19.90;;;7.20;;
70532;SDS011;58088;51.186;17.130;2022-11-20T11:23:41;20.90;;;8.50;;
70532;SDS011;58088;51.186;17.130;2022-11-20T11:26:21;18.20;;;7.70;;
70532;SDS011;58088;51.186;17.130;2022-11-20T11:29:02;16.00;;;6.80;;
70532;SDS011;58088;51.186;17.130;2022-11-20T11:31:32;14.00;;;4.90;;
70532;SDS011;58088;51.186;17.130;2022-11-20T11:36:35;19.40;;;8.00;;
70532;SDS011;58088;51.186;17.130;2022-11-20T11:39:03;19.50;;;8.50;;
70532;SDS011;58088;51.186;17.130;2022-11-20T11:41:33;15.50;;;6.60;;
70532;SDS011;58088;51.186;17.130;2022-11-20T11:44:26;22.90;;;9.30;;
70532;SDS011;58088;51.186;17.130;2022-11-20T11:58:21;17.40;;;7.80;;
70532;SDS011;58088;51.186;17.130;2022-11-20T12:00:58;12.80;;;4.90;;
70532;SDS011;58088;51.186;17.130;2022-11-20T12:03:40;16.90;;;7.00;;
70532;SDS011;58088;51.186;17.130;2022-11-20T12:06:16;16.10;;;6.50;;
70532;SDS011;58088;51.186;17.130;2022-11-20T12:09:04;18.50;;;7.60;;
70532;SDS011;58088;51.186;17.130;2022-11-20T12:16:56;14.80;;;5.70;;
70532;SDS011;58088;51.186;17.130;2022-11-20T12:19:23;20.20;;;8.80;;
70532;SDS011;58088;51.186;17.130;2022-11-20T12:25:10;18.50;;;7.70;;
70532;SDS011;58088;51.186;17.130;2022-11-20T12:36:57;12.20;;;4.90;;
70532;SDS011;58088;51.186;17.130;2022-11-20T12:39:41;16.70;;;6.70;;
70532;SDS011;58088;51.186;17.130;2022-11-20T12:42:32;17.30;;;7.20;;
70532;SDS011;58088;51.186;17.130;2022-11-20T12:49:26;15.60;;;6.50;;
70532;SDS011;58088;51.186;17.130;2022-11-20T12:55:30;16.70;;;7.10;;
70532;SDS011;58088;51.186;17.130;2022-11-20T13:01:05;17.20;;;6.70;;
70532;SDS011;58088;51.186;17.130;2022-11-20T13:04:01;12.90;;;4.70;;
70532;SDS011;58088;51.186;17.130;2022-11-20T13:06:54;15.20;;;6.60;;
70532;SDS011;58088;51.186;17.130;2022-11-20T13:09:22;15.40;;;5.90;;
70532;SDS011;58088;51.186;17.130;2022-11-20T13:12:10;14.80;;;6.80;;
70532;SDS011;58088;51.186;17.130;2022-11-20T13:17:55;16.00;;;6.10;;
70532;SDS011;58088;51.186;17.130;2022-11-20T13:20:27;12.50;;;5.00;;
70532;SDS011;58088;51.186;17.130;2022-11-20T13:22:55;14.70;;;5.30;;
70532;SDS011;58088;51.186;17.130;2022-11-20T13:27:54;15.50;;;5.80;;
70532;SDS011;58088;51.186;17.130;2022-11-20T13:30:26;18.90;;;7.80;;
70532;SDS011;58088;51.186;17.130;2022-11-20T13:33:07;18.70;;;8.00;;
70532;SDS011;58088;51.186;17.130;2022-11-20T13:38:28;11.40;;;4.20;;
70532;SDS011;58088;51.186;17.130;2022-11-20T13:41:33;13.20;;;5.20;;
70532;SDS011;58088;51.186;17.130;2022-11-20T13:44:24;16.00;;;6.40;;
70532;SDS011;58088;51.186;17.130;2022-11-20T13:46:51;17.60;;;7.00;;
70532;SDS011;58088;51.186;17.130;2022-11-20T13:49:27;15.70;;;6.00;;
70532;SDS011;58088;51.186;17.130;2022-11-20T14:00:55;14.60;;;6.00;;
70532;SDS011;58088;51.186;17.130;2022-11-20T14:03:29;17.40;;;7.30;;
70532;SDS011;58088;51.186;17.130;2022-11-20T14:06:10;14.00;;;6.30;;
70532;SDS011;58088;51.186;17.130;2022-11-20T14:08:52;7.80;;;2.70;;
70532;SDS011;58088;51.186;17.130;2022-11-20T14:11:21;11.90;;;4.60;;
70532;SDS011;58088;51.186;17.130;2022-11-20T14:16:29;18.30;;;6.70;;
70532;SDS011;58088;51.186;17.130;2022-11-20T14:21:48;14.00;;;5.30;;
70532;SDS011;58088;51.186;17.130;2022-11-20T14:24:20;18.30;;;7.30;;
70532;SDS011;58088;51.186;17.130;2022-11-20T14:26:49;18.80;;;7.80;;
70532;SDS011;58088;51.186;17.130;2022-11-20T14:29:37;17.50;;;7.30;;
70532;SDS011;58088;51.186;17.130;2022-11-20T14:32:04;16.40;;;7.00;;
70532;SDS011;58088;51.186;17.130;2022-11-20T14:34:35;20.20;;;8.40;;
70532;SDS011;58088;51.186;17.130;2022-11-20T14:37:11;18.80;;;7.90;;
70532;SDS011;58088;51.186;17.130;2022-11-20T14:39:49;17.90;;;7.80;;
70532;SDS011;58088;51.186;17.130;2022-11-20T14:42:25;18.00;;;7.30;;
70532;SDS011;58088;51.186;17.130;2022-11-20T14:44:55;20.80;;;7.80;;
70532;SDS011;58088;51.186;17.130;2022-11-20T14:47:25;18.80;;;8.00;;
70532;SDS011;58088;51.186;17.130;2022-11-20T14:49:54;17.80;;;7.20;;
70532;SDS011;58088;51.186;17.130;2022-11-20T14:52:25;17.50;;;7.40;;
70532;SDS011;58088;51.186;17.130;2022-11-20T14:54:57;18.40;;;7.40;;
70532;SDS011;58088;51.186;17.130;2022-11-20T14:57:32;33.70;;;13.10;;
70532;SDS011;58088;51.186;17.130;2022-11-20T15:02:34;31.10;;;13.20;;
70532;SDS011;58088;51.186;17.130;2022-11-20T15:05:01;33.00;;;13.30;;
70532;SDS011;58088;51.186;17.130;2022-11-20T15:07:33;27.70;;;11.70;;
70532;SDS011;58088;51.186;17.130;2022-11-20T15:10:01;27.30;;;11.50;;
70532;SDS011;58088;51.186;17.130;2022-11-20T15:12:31;22.80;;;9.60;;
70532;SDS011;58088;51.186;17.130;2022-11-20T15:15:02;21.20;;;8.40;;
70532;SDS011;58088;51.186;17.130;2022-11-20T15:17:30;21.40;;;8.90;;
70532;SDS011;58088;51.186;17.130;2022-11-20T15:19:59;22.30;;;8.70;;
70532;SDS011;58088;51.186;17.130;2022-11-20T15:22:27;22.70;;;9.20;;
70532;SDS011;58088;51.186;17.130;2022-11-20T15:24:53;19.80;;;8.40;;
70532;SDS011;58088;51.186;17.130;2022-11-20T15:27:20;20.40;;;8.80;;
70532;SDS011;58088;51.186;17.130;2022-11-20T15:29:46;20.20;;;8.10;;
70532;SDS011;58088;51.186;17.130;2022-11-20T15:32:13;25.50;;;10.20;;
70532;SDS011;58088;51.186;17.130;2022-11-20T15:34:39;22.20;;;8.90;;
70532;SDS011;58088;51.186;17.130;2022-11-20T15:37:05;24.30;;;9.40;;
70532;SDS011;58088;51.186;17.130;2022-11-20T15:39:31;21.80;;;9.20;;
70532;SDS011;58088;51.186;17.130;2022-11-20T15:41:57;22.00;;;8.50;;
70532;SDS011;58088;51.186;17.130;2022-11-20T15:44:23;20.80;;;8.40;;
70532;SDS011;58088;51.186;17.130;2022-11-20T15:46:49;20.70;;;8.50;;
70532;SDS011;58088;51.186;17.130;2022-11-20T15:49:16;23.30;;;9.10;;
70532;SDS011;58088;51.186;17.130;2022-11-20T15:51:46;19.90;;;8.80;;
70532;SDS011;58088;51.186;17.130;2022-11-20T15:54:16;20.30;;;8.10;;
70532;SDS011;58088;51.186;17.130;2022-11-20T15:56:46;26.40;;;10.90;;
70532;SDS011;58088;51.186;17.130;2022-11-20T15:59:13;23.70;;;9.80;;
70532;SDS011;58088;51.186;17.130;2022-11-20T16:01:42;29.10;;;11.40;;
70532;SDS011;58088;51.186;17.130;2022-11-20T16:04:11;29.00;;;11.50;;
70532;SDS011;58088;51.186;17.130;2022-11-20T16:06:39;25.90;;;11.40;;
70532;SDS011;58088;51.186;17.130;2022-11-20T16:09:06;25.50;;;10.60;;